createdAt,value
2023-04-05T00:01:19.293Z,9.53
2023-04-05T00:03:41.298Z,25.93
2023-04-05T00:06:02.772Z,13.97
2023-04-05T00:08:26.788Z,10.53
2023-04-05T00:10:51.290Z,10.10
2023-04-05T00:13:12.800Z,10.63
2023-04-05T00:15:34.506Z,9.93
2023-04-05T00:17:56.476Z,11.30
2023-04-05T00:20:17.706Z,13.63
2023-04-05T00:22:39.555Z,12.83
2023-04-05T00:25:03.409Z,11.13
2023-04-05T00:27:26.270Z,11.50
2023-04-05T00:29:47.477Z,12.53
2023-04-05T00:32:08.930Z,11.67
2023-04-05T00:34:30.261Z,11.10
2023-04-05T00:36:51.335Z,11.63
2023-04-05T00:39:12.383Z,11.60
2023-04-05T00:41:33.596Z,10.77
2023-04-05T00:43:57.005Z,10.97
2023-04-05T00:46:18.359Z,11.10
2023-04-05T00:48:41.842Z,11.13
2023-04-05T00:51:03.189Z,10.60
2023-04-05T00:53:24.646Z,10.80
2023-04-05T00:55:47.843Z,10.77
2023-04-05T00:58:10.310Z,10.50
2023-04-05T01:00:33.572Z,11.17
2023-04-05T01:03:01.904Z,10.40
2023-04-05T01:05:34.381Z,11.13
2023-04-05T01:08:00.790Z,11.43
2023-04-05T01:10:23.110Z,11.40
2023-04-05T01:12:44.998Z,11.53
2023-04-05T01:15:10.045Z,10.90
2023-04-05T01:17:36.927Z,10.90
2023-04-05T01:19:59.429Z,11.13
2023-04-05T01:22:41.726Z,10.47
2023-04-05T01:25:15.366Z,10.47
2023-04-05T01:27:45.899Z,11.23
2023-04-05T01:30:10.777Z,10.37
2023-04-05T01:32:39.593Z,10.87
2023-04-05T01:35:03.725Z,10.83
2023-04-05T01:37:27.789Z,10.67
2023-04-05T01:39:50.766Z,11.03
2023-04-05T01:42:11.825Z,11.40
2023-04-05T01:44:32.842Z,10.53
2023-04-05T01:46:55.639Z,10.93
2023-04-05T01:49:16.647Z,10.83
2023-04-05T01:51:41.880Z,10.37
2023-04-05T01:54:02.882Z,10.90
2023-04-05T01:56:24.139Z,10.70
2023-04-05T01:58:45.760Z,10.83
2023-04-05T02:01:07.405Z,11.07
2023-04-05T02:03:32.554Z,10.03
2023-04-05T02:05:53.879Z,11.20
2023-04-05T02:08:15.932Z,10.80
2023-04-05T02:10:37.219Z,11.57
2023-04-05T02:12:58.866Z,10.97
2023-04-05T02:15:19.890Z,10.90
2023-04-05T02:17:46.262Z,10.77
2023-04-05T02:20:12.575Z,10.90
2023-04-05T02:22:34.073Z,10.97
2023-04-05T02:24:55.341Z,11.10
2023-04-05T02:27:16.621Z,10.90
2023-04-05T02:29:38.141Z,10.67
2023-04-05T02:31:59.784Z,10.80
2023-04-05T02:34:23.441Z,10.37
2023-04-05T02:36:45.838Z,10.53
2023-04-05T02:39:07.213Z,10.33
2023-04-05T02:41:28.213Z,10.97
2023-04-05T02:43:49.761Z,10.07
2023-04-05T02:46:11.160Z,9.93
2023-04-05T02:48:32.222Z,10.47
2023-04-05T02:50:53.407Z,10.07
2023-04-05T02:53:16.263Z,11.00
2023-04-05T02:55:37.192Z,11.20
2023-04-05T02:58:00.567Z,11.00
2023-04-05T03:00:22.285Z,11.10
2023-04-05T03:02:43.976Z,11.13
2023-04-05T03:05:05.620Z,11.67
2023-04-05T03:07:27.883Z,11.20
2023-04-05T03:09:51.344Z,10.67
2023-04-05T03:12:12.548Z,10.90
2023-04-05T03:14:34.773Z,10.13
2023-04-05T03:16:56.185Z,11.20
2023-04-05T03:19:18.775Z,11.33
2023-04-05T03:21:41.104Z,11.17
2023-04-05T03:24:02.909Z,11.23
2023-04-05T03:26:25.737Z,11.57
2023-04-05T03:28:47.391Z,11.07
2023-04-05T03:31:08.606Z,10.97
2023-04-05T03:33:30.072Z,11.73
2023-04-05T03:35:51.391Z,11.20
2023-04-05T03:38:12.600Z,11.60
2023-04-05T03:40:34.273Z,12.13
2023-04-05T03:43:00.176Z,12.03
2023-04-05T03:45:24.340Z,11.50
2023-04-05T03:47:46.176Z,10.47
2023-04-05T03:50:08.596Z,11.57
2023-04-05T03:52:30.643Z,11.83
2023-04-05T03:54:52.412Z,11.80
2023-04-05T03:57:13.930Z,11.97
2023-04-05T03:59:36.821Z,11.90
2023-04-05T04:01:57.867Z,11.83
2023-04-05T04:04:19.074Z,11.60
2023-04-05T04:06:40.209Z,11.43
2023-04-05T04:09:01.463Z,11.77
2023-04-05T04:11:22.633Z,11.27
2023-04-05T04:13:43.956Z,11.80
2023-04-05T04:16:07.139Z,12.23
2023-04-05T04:18:28.326Z,12.03
2023-04-05T04:20:49.555Z,11.90
2023-04-05T04:23:14.641Z,11.47
2023-04-05T04:25:35.942Z,12.00
2023-04-05T04:27:58.784Z,11.97
2023-04-05T04:30:22.995Z,12.13
2023-04-05T04:32:52.948Z,11.60
2023-04-05T04:35:18.314Z,11.30
2023-04-05T04:37:46.650Z,12.73
2023-04-05T04:40:10.067Z,12.03
2023-04-05T04:42:38.946Z,12.43
2023-04-05T04:45:04.474Z,12.20
2023-04-05T04:47:26.416Z,12.47
2023-04-05T04:49:48.892Z,12.30
2023-04-05T04:52:10.446Z,13.23
2023-04-05T04:54:34.284Z,12.63
2023-04-05T04:56:55.946Z,12.50
2023-04-05T04:59:17.000Z,11.53
2023-04-05T05:01:40.650Z,12.60
2023-04-05T05:04:01.733Z,12.73
2023-04-05T05:06:24.518Z,12.97
2023-04-05T05:08:46.457Z,12.63
2023-04-05T05:11:09.554Z,12.10
2023-04-05T05:13:32.775Z,12.63
2023-04-05T05:15:53.884Z,12.53
2023-04-05T05:18:16.023Z,32.00
2023-04-05T05:20:37.404Z,31.77
2023-04-05T05:23:06.716Z,41.07
2023-04-05T05:25:28.520Z,45.57
2023-04-05T05:27:51.407Z,36.60
2023-04-05T05:30:13.227Z,28.17
2023-04-05T05:32:34.581Z,20.50
2023-04-05T05:34:55.983Z,20.00
2023-04-05T05:37:17.602Z,19.67
2023-04-05T05:39:39.903Z,17.00
2023-04-05T05:42:01.091Z,16.10
2023-04-05T05:44:22.359Z,15.47
2023-04-05T05:46:43.851Z,14.83
2023-04-05T05:49:05.140Z,15.87
2023-04-05T05:51:26.286Z,18.03
2023-04-05T05:53:48.030Z,13.37
2023-04-05T05:56:10.470Z,14.57
2023-04-05T05:58:31.811Z,13.37
2023-04-05T06:00:56.864Z,15.33
2023-04-05T06:03:19.262Z,17.53
2023-04-05T06:05:40.421Z,15.23
2023-04-05T06:08:01.686Z,14.53
2023-04-05T06:10:24.291Z,13.93
2023-04-05T06:12:47.269Z,14.03
2023-04-05T06:15:09.109Z,13.47
2023-04-05T06:17:30.339Z,12.93
2023-04-05T06:19:51.946Z,13.27
2023-04-05T06:22:13.454Z,13.00
2023-04-05T06:24:34.853Z,14.53
2023-04-05T06:26:55.868Z,13.87
2023-04-05T06:29:18.670Z,14.50
2023-04-05T06:31:41.540Z,24.87
2023-04-05T06:34:02.532Z,22.60
2023-04-05T06:36:25.549Z,20.60
2023-04-05T06:38:48.606Z,18.93
2023-04-05T06:41:09.809Z,15.40
2023-04-05T06:43:31.509Z,14.50
2023-04-05T06:45:56.564Z,14.43
2023-04-05T06:48:18.018Z,13.47
2023-04-05T06:50:40.937Z,13.03
2023-04-05T06:53:02.574Z,12.07
2023-04-05T06:55:23.755Z,15.80
2023-04-05T06:57:45.054Z,15.83
2023-04-05T07:00:10.729Z,17.07
2023-04-05T07:02:35.560Z,14.27
2023-04-05T07:05:03.682Z,13.93
2023-04-05T07:07:24.930Z,12.23
2023-04-05T07:09:46.154Z,12.17
2023-04-05T07:12:08.326Z,11.70
2023-04-05T07:14:30.624Z,11.70
2023-04-05T07:16:52.437Z,11.73
2023-04-05T07:19:15.293Z,11.30
2023-04-05T07:21:36.494Z,10.60
2023-04-05T07:24:00.720Z,10.57
2023-04-05T07:26:22.514Z,9.87
2023-04-05T07:28:43.868Z,9.77
2023-04-05T07:31:06.786Z,9.37
2023-04-05T07:33:28.209Z,9.20
2023-04-05T07:35:54.518Z,10.40
2023-04-05T07:38:15.941Z,8.97
2023-04-05T07:40:37.378Z,9.33
2023-04-05T07:42:58.801Z,10.03
2023-04-05T07:45:20.773Z,9.70
2023-04-05T07:47:42.103Z,9.77
2023-04-05T07:50:03.410Z,9.43
2023-04-05T07:52:26.067Z,9.70
2023-04-05T07:54:47.001Z,9.63
2023-04-05T07:57:08.303Z,9.27
2023-04-05T07:59:29.225Z,8.93
2023-04-05T08:01:50.441Z,9.40
2023-04-05T08:04:11.559Z,8.77
2023-04-05T08:06:32.884Z,9.00
2023-04-05T08:08:55.588Z,9.07
2023-04-05T08:11:16.741Z,8.73
2023-04-05T08:13:40.420Z,8.60
2023-04-05T08:16:02.322Z,8.63
2023-04-05T08:18:23.557Z,8.47
2023-04-05T08:20:44.890Z,9.03
2023-04-05T08:23:06.212Z,8.53
2023-04-05T08:25:28.959Z,8.37
2023-04-05T08:27:50.027Z,8.43
2023-04-05T08:30:11.740Z,8.57
2023-04-05T08:32:33.188Z,8.67
2023-04-05T08:34:54.563Z,8.97
2023-04-05T08:37:16.079Z,8.20
2023-04-05T08:39:37.326Z,7.97
2023-04-05T08:42:04.808Z,8.13
2023-04-05T08:44:27.453Z,7.43
2023-04-05T08:46:49.055Z,7.00
2023-04-05T08:49:11.597Z,6.90
2023-04-05T08:51:33.425Z,6.60
2023-04-05T08:53:54.847Z,7.17
2023-04-05T08:56:17.174Z,6.37
2023-04-05T08:58:40.633Z,6.70
2023-04-05T09:01:02.055Z,6.27
2023-04-05T09:03:25.047Z,6.20
2023-04-05T09:05:47.578Z,5.93
2023-04-05T09:08:09.047Z,5.70
2023-04-05T09:10:31.130Z,6.00
2023-04-05T09:12:53.259Z,5.97
2023-04-05T09:15:16.670Z,5.73
2023-04-05T09:17:38.936Z,5.93
2023-04-05T09:19:59.803Z,5.30
2023-04-05T09:22:21.173Z,5.90
2023-04-05T09:24:43.549Z,5.60
2023-04-05T09:27:05.790Z,5.40
2023-04-05T09:29:30.425Z,6.57
2023-04-05T09:31:53.412Z,6.20
2023-04-05T09:34:21.135Z,5.43
2023-04-05T09:36:45.336Z,5.50
2023-04-05T09:39:07.374Z,5.77
2023-04-05T09:41:28.853Z,5.47
2023-04-05T09:43:50.192Z,4.97
2023-04-05T09:46:29.511Z,5.40
2023-04-05T09:48:52.767Z,5.50
2023-04-05T09:51:13.942Z,5.47
2023-04-05T09:53:35.045Z,5.10
2023-04-05T09:56:09.619Z,5.23
2023-04-05T09:58:33.335Z,5.17
2023-04-05T10:01:03.258Z,5.97
2023-04-05T10:03:47.236Z,5.33
2023-04-05T10:06:10.045Z,5.17
2023-04-05T10:08:31.371Z,5.50
2023-04-05T10:10:54.921Z,5.90
2023-04-05T10:13:17.802Z,6.00
2023-04-05T10:15:38.916Z,5.50
2023-04-05T10:18:04.741Z,5.00
2023-04-05T10:20:28.089Z,5.80
2023-04-05T10:23:01.241Z,5.50
2023-04-05T10:25:26.164Z,5.67
2023-04-05T10:27:48.493Z,5.30
2023-04-05T10:30:10.505Z,5.53
2023-04-05T10:32:36.319Z,5.40
2023-04-05T10:34:58.809Z,5.40
2023-04-05T10:37:26.577Z,5.80
2023-04-05T10:39:49.223Z,5.60
2023-04-05T10:42:14.845Z,5.70
2023-04-05T10:44:37.763Z,5.07
2023-04-05T10:46:59.372Z,5.60
2023-04-05T10:49:22.934Z,5.70
2023-04-05T10:51:45.150Z,6.17
2023-04-05T10:54:09.039Z,7.33
2023-04-05T10:56:32.130Z,6.43
2023-04-05T10:58:53.885Z,5.73
2023-04-05T11:01:17.437Z,5.73
2023-04-05T11:03:49.134Z,6.00
2023-04-05T11:06:19.129Z,5.67
2023-04-05T11:08:43.279Z,5.50
2023-04-05T11:11:05.160Z,5.80
2023-04-05T11:13:48.723Z,5.30
2023-04-05T11:16:10.078Z,6.17
2023-04-05T11:18:31.421Z,5.93
2023-04-05T11:20:55.777Z,5.80
2023-04-05T11:23:18.700Z,5.83
2023-04-05T11:25:41.392Z,5.90
2023-04-05T11:28:02.404Z,5.80
2023-04-05T11:30:46.711Z,5.70
2023-04-05T11:33:09.089Z,5.53
2023-04-05T11:35:35.878Z,6.60
2023-04-05T11:37:58.930Z,5.37
2023-04-05T11:40:27.438Z,6.40
2023-04-05T11:42:48.716Z,6.27
2023-04-05T11:45:10.431Z,5.73
2023-04-05T11:47:32.838Z,6.07
2023-04-05T11:49:54.088Z,5.73
2023-04-05T11:52:16.082Z,5.83
2023-04-05T11:54:37.710Z,5.30
2023-04-05T11:56:59.119Z,5.87
2023-04-05T11:59:21.351Z,5.57
2023-04-05T12:01:45.564Z,5.57
2023-04-05T12:04:08.422Z,5.70
2023-04-05T12:06:29.588Z,6.00
2023-04-05T12:08:51.006Z,5.23
2023-04-05T12:11:13.301Z,5.63
2023-04-05T12:13:35.339Z,5.17
2023-04-05T12:15:58.621Z,5.53
2023-04-05T12:18:19.579Z,5.03
2023-04-05T12:20:42.331Z,5.40
2023-04-05T12:23:04.451Z,5.67
2023-04-05T12:25:25.835Z,5.27
2023-04-05T12:27:47.622Z,5.80
2023-04-05T12:30:14.762Z,5.20
2023-04-05T12:32:42.218Z,4.90
2023-04-05T12:35:06.744Z,5.53
2023-04-05T12:37:29.696Z,5.80
2023-04-05T12:39:51.129Z,5.23
2023-04-05T12:42:18.170Z,5.50
2023-04-05T12:44:39.394Z,5.60
2023-04-05T12:47:01.161Z,5.13
2023-04-05T12:49:22.366Z,5.57
2023-04-05T12:51:44.826Z,5.67
2023-04-05T12:54:07.704Z,5.50
2023-04-05T12:56:29.534Z,5.90
2023-04-05T12:58:50.725Z,6.10
2023-04-05T13:01:12.924Z,5.37
2023-04-05T13:03:34.186Z,5.57
2023-04-05T13:05:55.610Z,5.17
2023-04-05T13:08:18.405Z,5.97
2023-04-05T13:10:42.414Z,5.53
2023-04-05T13:13:03.726Z,6.10
2023-04-05T13:15:24.881Z,6.30
2023-04-05T13:17:49.909Z,6.20
2023-04-05T13:20:12.324Z,6.60
2023-04-05T13:22:33.359Z,5.93
2023-04-05T13:24:54.935Z,5.47
2023-04-05T13:27:17.259Z,5.23
2023-04-05T13:29:38.656Z,6.23
2023-04-05T13:31:59.957Z,6.00
2023-04-05T13:34:20.976Z,6.30
2023-04-05T13:36:42.160Z,6.07
2023-04-05T13:39:03.287Z,6.50
2023-04-05T13:41:24.565Z,5.80
2023-04-05T13:43:47.152Z,6.23
2023-04-05T13:46:08.456Z,6.27
2023-04-05T13:48:29.716Z,6.60
2023-04-05T13:50:51.116Z,5.93
2023-04-05T13:53:12.356Z,6.63
2023-04-05T13:55:33.785Z,5.97
2023-04-05T13:57:55.118Z,6.30
2023-04-05T14:00:18.415Z,6.80
2023-04-05T14:02:39.689Z,6.07
2023-04-05T14:05:01.348Z,5.70
2023-04-05T14:07:22.659Z,5.80
2023-04-05T14:09:44.707Z,5.87
2023-04-05T14:12:06.301Z,5.90
2023-04-05T14:14:27.535Z,6.10
2023-04-05T14:16:50.529Z,5.63
2023-04-05T14:19:11.890Z,5.70
2023-04-05T14:21:33.184Z,5.37
2023-04-05T14:23:56.969Z,5.97
2023-04-05T14:26:18.361Z,5.93
2023-04-05T14:28:39.611Z,5.60
2023-04-05T14:31:00.989Z,5.73
2023-04-05T14:33:23.968Z,5.70
2023-04-05T14:35:45.028Z,6.37
2023-04-05T14:38:06.334Z,5.93
2023-04-05T14:40:27.552Z,5.63
2023-04-05T14:42:50.239Z,6.10
2023-04-05T14:45:12.305Z,5.60
2023-04-05T14:47:33.713Z,5.43
2023-04-05T14:49:56.312Z,6.17
2023-04-05T14:52:17.455Z,5.90
2023-04-05T14:54:38.990Z,5.40
2023-04-05T14:57:00.351Z,5.63
2023-04-05T14:59:22.045Z,5.97
2023-04-05T15:01:45.545Z,5.63
2023-04-05T15:04:08.855Z,6.30
2023-04-05T15:06:32.309Z,5.67
2023-04-05T15:08:54.521Z,5.93
2023-04-05T15:11:16.068Z,5.53
2023-04-05T15:13:37.081Z,5.70
2023-04-05T15:15:58.252Z,6.00
2023-04-05T15:18:19.689Z,5.50
2023-04-05T15:20:41.166Z,5.40
2023-04-05T15:23:03.753Z,5.67
2023-04-05T15:25:25.057Z,5.90
2023-04-05T15:27:46.486Z,5.70
2023-04-05T15:30:08.656Z,6.37
2023-04-05T15:32:33.537Z,6.00
2023-04-05T15:34:55.142Z,6.20
2023-04-05T15:37:16.545Z,6.07
2023-04-05T15:39:39.112Z,6.13
2023-04-05T15:42:01.687Z,6.40
2023-04-05T15:44:22.849Z,6.07
2023-04-05T15:46:44.499Z,6.23
2023-04-05T15:49:06.035Z,6.03
2023-04-05T15:51:28.058Z,5.63
2023-04-05T15:53:49.258Z,5.50
2023-04-05T15:56:12.361Z,5.60
2023-04-05T15:58:33.980Z,5.80
2023-04-05T16:00:55.748Z,5.23
2023-04-05T16:03:17.173Z,5.17
2023-04-05T16:05:38.482Z,4.97
2023-04-05T16:07:59.705Z,5.20
2023-04-05T16:10:21.099Z,4.80
2023-04-05T16:12:43.817Z,4.60
2023-04-05T16:15:05.212Z,4.93
2023-04-05T16:17:27.797Z,6.07
2023-04-05T16:19:49.313Z,4.80
2023-04-05T16:22:11.125Z,4.97
2023-04-05T16:24:36.582Z,4.80
2023-04-05T16:26:58.042Z,5.60
2023-04-05T16:29:20.806Z,5.33
2023-04-05T16:31:46.969Z,5.07
2023-04-05T16:34:08.438Z,5.00
2023-04-05T16:36:29.896Z,5.07
2023-04-05T16:38:51.850Z,4.33
2023-04-05T16:41:13.428Z,4.57
2023-04-05T16:43:35.257Z,4.70
2023-04-05T16:45:58.154Z,4.70
2023-04-05T16:48:19.671Z,4.40
2023-04-05T16:50:41.409Z,4.37
2023-04-05T16:53:02.760Z,4.70
2023-04-05T16:55:24.085Z,4.90
2023-04-05T16:57:45.279Z,4.63
2023-04-05T17:00:07.309Z,5.13
2023-04-05T17:02:30.487Z,4.80
2023-04-05T17:04:52.987Z,4.70
2023-04-05T17:07:14.494Z,4.70
2023-04-05T17:09:36.067Z,5.00
2023-04-05T17:11:57.491Z,5.10
2023-04-05T17:14:18.889Z,5.10
2023-04-05T17:16:40.976Z,4.50
2023-04-05T17:19:03.613Z,4.50
2023-04-05T17:21:25.901Z,4.67
2023-04-05T17:23:47.471Z,4.77
2023-04-05T17:26:08.891Z,5.83
2023-04-05T17:28:31.940Z,4.90
2023-04-05T17:30:53.158Z,5.50
2023-04-05T17:33:14.481Z,5.63
2023-04-05T17:35:38.019Z,5.63
2023-04-05T17:37:59.801Z,5.17
2023-04-05T17:40:21.309Z,5.73
2023-04-05T17:42:42.501Z,6.90
2023-04-05T17:45:03.898Z,5.50
2023-04-05T17:47:25.470Z,7.03
2023-04-05T17:49:47.151Z,6.93
2023-04-05T17:52:09.798Z,6.70
2023-04-05T17:54:31.697Z,6.70
2023-04-05T17:56:52.835Z,6.40
2023-04-05T17:59:14.102Z,5.90
2023-04-05T18:01:35.335Z,5.77
2023-04-05T18:03:57.052Z,6.30
2023-04-05T18:06:20.093Z,6.00
2023-04-05T18:08:42.918Z,6.57
2023-04-05T18:11:04.872Z,6.20
2023-04-05T18:13:26.788Z,6.33
2023-04-05T18:15:48.249Z,6.20
2023-04-05T18:18:09.650Z,6.00
2023-04-05T18:20:31.210Z,6.40
2023-04-05T18:22:52.172Z,6.07
2023-04-05T18:25:14.817Z,6.77
2023-04-05T18:27:35.970Z,6.50
2023-04-05T18:29:57.061Z,6.90
2023-04-05T18:32:18.596Z,6.70
2023-04-05T18:34:40.100Z,6.50
2023-04-05T18:37:02.003Z,6.50
2023-04-05T18:39:25.090Z,6.37
2023-04-05T18:41:49.765Z,7.07
2023-04-05T18:44:10.912Z,7.03
2023-04-05T18:46:32.389Z,7.00
2023-04-05T18:48:54.857Z,6.70
2023-04-05T18:51:16.309Z,6.80
2023-04-05T18:53:37.640Z,6.50
2023-04-05T18:55:58.792Z,7.17
2023-04-05T18:58:21.879Z,7.30
2023-04-05T19:00:43.137Z,7.67
2023-04-05T19:03:04.674Z,7.40
2023-04-05T19:05:26.430Z,7.30
2023-04-05T19:07:47.924Z,7.40
2023-04-05T19:10:10.103Z,7.77
2023-04-05T19:12:31.232Z,7.90
2023-04-05T19:14:54.190Z,8.10
2023-04-05T19:17:15.442Z,7.37
2023-04-05T19:19:37.609Z,7.30
2023-04-05T19:21:58.863Z,7.17
2023-04-05T19:24:21.824Z,7.73
2023-04-05T19:26:43.027Z,7.63
2023-04-05T19:29:04.465Z,7.57
2023-04-05T19:31:27.783Z,7.53
2023-04-05T19:33:50.146Z,7.87
2023-04-05T19:36:11.360Z,8.27
2023-04-05T19:38:32.979Z,8.13
2023-04-05T19:40:54.865Z,8.63
2023-04-05T19:43:16.408Z,8.20
2023-04-05T19:45:37.973Z,8.53
2023-04-05T19:48:01.274Z,8.97
2023-04-05T19:50:43.824Z,8.67
2023-04-05T19:53:07.752Z,8.47
2023-04-05T19:55:29.765Z,7.90
2023-04-05T19:57:51.488Z,7.70
2023-04-05T20:00:27.951Z,8.00
2023-04-05T20:02:49.402Z,7.73
2023-04-05T20:05:14.616Z,7.50
2023-04-05T20:07:37.322Z,8.37
2023-04-05T20:09:58.344Z,8.13
2023-04-05T20:12:22.394Z,8.50
2023-04-05T20:14:45.880Z,8.27
2023-04-05T20:17:07.417Z,7.90
2023-04-05T20:19:29.543Z,8.70
2023-04-05T20:21:52.163Z,8.13
2023-04-05T20:24:15.417Z,8.10
2023-04-05T20:26:37.088Z,8.40
2023-04-05T20:28:58.856Z,8.47
2023-04-05T20:31:21.952Z,7.97
2023-04-05T20:33:47.680Z,8.43
2023-04-05T20:36:11.059Z,8.27
2023-04-05T20:38:33.728Z,8.10
2023-04-05T20:40:55.118Z,8.13
2023-04-05T20:43:17.073Z,8.97
2023-04-05T20:45:38.386Z,8.83
2023-04-05T20:48:01.077Z,8.67
2023-04-05T20:50:22.617Z,9.00
2023-04-05T20:52:44.018Z,9.50
2023-04-05T20:55:07.853Z,8.97
2023-04-05T20:57:29.434Z,8.97
2023-04-05T20:59:51.210Z,9.50
2023-04-05T21:02:12.287Z,8.83
2023-04-05T21:04:34.602Z,8.20
2023-04-05T21:06:56.531Z,8.57
2023-04-05T21:09:17.863Z,8.67
2023-04-05T21:11:40.419Z,8.87
2023-04-05T21:14:01.471Z,9.10
2023-04-05T21:16:22.825Z,9.00
2023-04-05T21:18:44.112Z,9.10
2023-04-05T21:21:05.744Z,8.80
2023-04-05T21:23:27.902Z,8.83
2023-04-05T21:25:49.393Z,10.17
2023-04-05T21:28:12.240Z,10.20
2023-04-05T21:30:33.494Z,10.77
2023-04-05T21:32:54.943Z,10.70
2023-04-05T21:35:16.098Z,10.70
2023-04-05T21:37:37.399Z,11.00
2023-04-05T21:39:59.691Z,11.50
2023-04-05T21:42:22.913Z,10.47
2023-04-05T21:44:45.448Z,11.63
2023-04-05T21:47:06.453Z,10.90
2023-04-05T21:49:28.285Z,11.43
2023-04-05T21:51:49.881Z,11.60
2023-04-05T21:54:11.335Z,10.97
2023-04-05T21:56:32.815Z,11.17
2023-04-05T21:58:54.192Z,11.10
2023-04-05T22:01:17.206Z,11.03
2023-04-05T22:03:38.477Z,11.20
2023-04-05T22:05:59.779Z,11.73
2023-04-05T22:08:21.299Z,10.87
2023-04-05T22:10:43.712Z,11.83
2023-04-05T22:13:04.957Z,11.33
2023-04-05T22:15:26.247Z,12.27
2023-04-05T22:17:49.315Z,11.43
2023-04-05T22:20:11.374Z,10.83
2023-04-05T22:22:32.598Z,10.23
2023-04-05T22:24:54.155Z,10.37
2023-04-05T22:27:15.777Z,10.80
2023-04-05T22:29:37.165Z,10.77
2023-04-05T22:31:58.915Z,10.40
2023-04-05T22:34:21.569Z,10.07
2023-04-05T22:36:43.152Z,10.03
2023-04-05T22:39:04.557Z,10.40
2023-04-05T22:41:26.199Z,10.90
2023-04-05T22:43:47.801Z,12.27
2023-04-05T22:46:09.434Z,11.23
2023-04-05T22:48:30.595Z,11.73
2023-04-05T22:50:52.969Z,10.97
2023-04-05T22:53:14.411Z,10.77
2023-04-05T22:55:37.446Z,10.93
2023-04-05T22:57:59.058Z,10.87
2023-04-05T23:00:20.678Z,11.10
2023-04-05T23:02:42.207Z,11.13
2023-04-05T23:05:03.660Z,11.70
2023-04-05T23:07:26.567Z,12.47
2023-04-05T23:09:48.155Z,12.13
2023-04-05T23:12:11.476Z,11.77
2023-04-05T23:14:32.640Z,11.63
2023-04-05T23:16:54.088Z,12.27
2023-04-05T23:19:18.036Z,11.80
2023-04-05T23:21:39.276Z,10.93
2023-04-05T23:24:03.022Z,11.17
2023-04-05T23:26:24.864Z,11.70
2023-04-05T23:28:46.055Z,11.50
2023-04-05T23:31:07.387Z,11.03
2023-04-05T23:33:28.730Z,12.20
2023-04-05T23:35:50.122Z,11.87
2023-04-05T23:38:11.742Z,11.40
2023-04-05T23:40:34.620Z,12.60
2023-04-05T23:42:55.710Z,11.43
2023-04-05T23:45:16.714Z,12.47
2023-04-05T23:47:38.010Z,12.33
2023-04-05T23:49:59.506Z,12.60
2023-04-05T23:52:22.485Z,12.50
2023-04-05T23:54:44.211Z,12.57
2023-04-05T23:57:07.113Z,12.50
2023-04-05T23:59:28.486Z,12.37
